sensor_id;sensor_type;location;lat;lon;timestamp;P1;durP1;ratioP1;P2;durP2;ratioP2
52708;SDS011;38606;52.986;6.980;2022-11-04T00:01:42;12.45;;;10.02;;
52708;SDS011;38606;52.986;6.980;2022-11-04T00:04:09;13.02;;;9.57;;
52708;SDS011;38606;52.986;6.980;2022-11-04T00:06:36;14.38;;;9.70;;
52708;SDS011;38606;52.986;6.980;2022-11-04T00:09:03;13.05;;;9.25;;
52708;SDS011;38606;52.986;6.980;2022-11-04T00:11:29;12.15;;;8.98;;
52708;SDS011;38606;52.986;6.980;2022-11-04T00:14:14;12.38;;;9.18;;
52708;SDS011;38606;52.986;6.980;2022-11-04T00:16:40;11.23;;;9.05;;
52708;SDS011;38606;52.986;6.980;2022-11-04T00:19:25;10.57;;;9.10;;
52708;SDS011;38606;52.986;6.980;2022-11-04T00:21:50;10.60;;;9.13;;
52708;SDS011;38606;52.986;6.980;2022-11-04T00:24:35;11.88;;;9.10;;
52708;SDS011;38606;52.986;6.980;2022-11-04T00:27:11;10.65;;;9.40;;
52708;SDS011;38606;52.986;6.980;2022-11-04T00:29:56;11.23;;;8.57;;
52708;SDS011;38606;52.986;6.980;2022-11-04T00:32:22;11.95;;;8.50;;
52708;SDS011;38606;52.986;6.980;2022-11-04T00:35:07;10.30;;;7.45;;
52708;SDS011;38606;52.986;6.980;2022-11-04T00:37:38;7.80;;;7.00;;
52708;SDS011;38606;52.986;6.980;2022-11-04T00:40:04;7.97;;;5.95;;
52708;SDS011;38606;52.986;6.980;2022-11-04T00:42:31;6.40;;;4.40;;
52708;SDS011;38606;52.986;6.980;2022-11-04T00:44:57;6.53;;;4.40;;
52708;SDS011;38606;52.986;6.980;2022-11-04T00:47:23;4.28;;;3.38;;
52708;SDS011;38606;52.986;6.980;2022-11-04T00:49:48;7.00;;;3.60;;
52708;SDS011;38606;52.986;6.980;2022-11-04T00:52:14;3.97;;;3.03;;
52708;SDS011;38606;52.986;6.980;2022-11-04T00:54:40;4.93;;;3.53;;
52708;SDS011;38606;52.986;6.980;2022-11-04T00:57:08;3.80;;;3.15;;
52708;SDS011;38606;52.986;6.980;2022-11-04T00:59:34;3.33;;;2.97;;
52708;SDS011;38606;52.986;6.980;2022-11-04T01:02:00;3.53;;;3.05;;
52708;SDS011;38606;52.986;6.980;2022-11-04T01:04:26;3.45;;;3.05;;
52708;SDS011;38606;52.986;6.980;2022-11-04T01:06:51;3.97;;;2.92;;
52708;SDS011;38606;52.986;6.980;2022-11-04T01:09:17;4.95;;;2.58;;
52708;SDS011;38606;52.986;6.980;2022-11-04T01:11:43;4.07;;;2.28;;
52708;SDS011;38606;52.986;6.980;2022-11-04T01:14:08;7.40;;;2.00;;
52708;SDS011;38606;52.986;6.980;2022-11-04T01:16:34;3.20;;;2.20;;
52708;SDS011;38606;52.986;6.980;2022-11-04T01:19:00;2.20;;;1.85;;
52708;SDS011;38606;52.986;6.980;2022-11-04T01:21:26;2.25;;;1.83;;
52708;SDS011;38606;52.986;6.980;2022-11-04T01:23:52;2.40;;;2.20;;
52708;SDS011;38606;52.986;6.980;2022-11-04T01:26:19;2.40;;;2.13;;
52708;SDS011;38606;52.986;6.980;2022-11-04T01:28:47;2.35;;;2.15;;
52708;SDS011;38606;52.986;6.980;2022-11-04T01:31:15;3.72;;;2.00;;
52708;SDS011;38606;52.986;6.980;2022-11-04T01:33:48;2.05;;;1.63;;
52708;SDS011;38606;52.986;6.980;2022-11-04T01:36:15;2.80;;;1.10;;
52708;SDS011;38606;52.986;6.980;2022-11-04T01:38:41;0.70;;;0.60;;
52708;SDS011;38606;52.986;6.980;2022-11-04T01:41:07;2.17;;;0.70;;
52708;SDS011;38606;52.986;6.980;2022-11-04T01:46:28;1.27;;;0.50;;
52708;SDS011;38606;52.986;6.980;2022-11-04T01:51:47;1.45;;;0.52;;
52708;SDS011;38606;52.986;6.980;2022-11-04T01:54:14;0.57;;;0.50;;
52708;SDS011;38606;52.986;6.980;2022-11-04T01:56:40;3.70;;;0.60;;
52708;SDS011;38606;52.986;6.980;2022-11-04T01:59:10;2.08;;;0.70;;
52708;SDS011;38606;52.986;6.980;2022-11-04T02:01:40;2.35;;;0.50;;
52708;SDS011;38606;52.986;6.980;2022-11-04T02:04:07;0.30;;;0.30;;
52708;SDS011;38606;52.986;6.980;2022-11-04T02:06:49;0.82;;;0.40;;
52708;SDS011;38606;52.986;6.980;2022-11-04T02:09:28;3.33;;;0.65;;
52708;SDS011;38606;52.986;6.980;2022-11-04T02:11:55;1.40;;;0.60;;
52708;SDS011;38606;52.986;6.980;2022-11-04T02:14:39;1.65;;;0.60;;
52708;SDS011;38606;52.986;6.980;2022-11-04T02:31:46;2.88;;;0.90;;
52708;SDS011;38606;52.986;6.980;2022-11-04T02:34:32;2.05;;;0.90;;
52708;SDS011;38606;52.986;6.980;2022-11-04T02:42:28;2.83;;;0.85;;
52708;SDS011;38606;52.986;6.980;2022-11-04T02:45:09;4.13;;;1.10;;
52708;SDS011;38606;52.986;6.980;2022-11-04T02:47:44;2.95;;;1.65;;
52708;SDS011;38606;52.986;6.980;2022-11-04T02:50:22;3.60;;;1.02;;
52708;SDS011;38606;52.986;6.980;2022-11-04T02:53:00;4.05;;;0.80;;
52708;SDS011;38606;52.986;6.980;2022-11-04T02:55:47;1.15;;;0.60;;
52708;SDS011;38606;52.986;6.980;2022-11-04T02:58:17;1.80;;;0.50;;
52708;SDS011;38606;52.986;6.980;2022-11-04T03:00:48;1.40;;;0.70;;
52708;SDS011;38606;52.986;6.980;2022-11-04T03:03:17;3.67;;;0.80;;
52708;SDS011;38606;52.986;6.980;2022-11-04T03:05:49;1.42;;;0.52;;
52708;SDS011;38606;52.986;6.980;2022-11-04T03:08:40;2.53;;;0.65;;
52708;SDS011;38606;52.986;6.980;2022-11-04T03:11:10;1.80;;;0.70;;
52708;SDS011;38606;52.986;6.980;2022-11-04T03:13:39;2.83;;;0.77;;
52708;SDS011;38606;52.986;6.980;2022-11-04T03:21:32;3.03;;;0.88;;
52708;SDS011;38606;52.986;6.980;2022-11-04T03:24:01;0.98;;;0.60;;
52708;SDS011;38606;52.986;6.980;2022-11-04T03:26:51;1.80;;;0.38;;
52708;SDS011;38606;52.986;6.980;2022-11-04T03:31:58;1.27;;;0.68;;
52708;SDS011;38606;52.986;6.980;2022-11-04T03:34:26;1.80;;;0.80;;
52708;SDS011;38606;52.986;6.980;2022-11-04T03:36:51;2.63;;;0.75;;
52708;SDS011;38606;52.986;6.980;2022-11-04T03:39:17;1.15;;;0.80;;
52708;SDS011;38606;52.986;6.980;2022-11-04T03:41:45;1.85;;;0.60;;
52708;SDS011;38606;52.986;6.980;2022-11-04T03:44:14;1.63;;;0.65;;
52708;SDS011;38606;52.986;6.980;2022-11-04T03:46:40;2.13;;;0.85;;
52708;SDS011;38606;52.986;6.980;2022-11-04T03:49:06;2.28;;;0.70;;
52708;SDS011;38606;52.986;6.980;2022-11-04T03:51:34;1.55;;;0.98;;
52708;SDS011;38606;52.986;6.980;2022-11-04T03:54:00;3.33;;;0.90;;
52708;SDS011;38606;52.986;6.980;2022-11-04T03:59:22;3.92;;;1.20;;
52708;SDS011;38606;52.986;6.980;2022-11-04T04:01:53;3.22;;;1.15;;
52708;SDS011;38606;52.986;6.980;2022-11-04T04:07:41;3.92;;;1.27;;
52708;SDS011;38606;52.986;6.980;2022-11-04T04:09:55;1.35;;;1.20;;
52708;SDS011;38606;52.986;6.980;2022-11-04T04:13:11;1.30;;;0.95;;
52708;SDS011;38606;52.986;6.980;2022-11-04T04:15:47;2.28;;;1.10;;
52708;SDS011;38606;52.986;6.980;2022-11-04T04:18:28;2.20;;;0.95;;
52708;SDS011;38606;52.986;6.980;2022-11-04T04:21:01;1.83;;;1.00;;
52708;SDS011;38606;52.986;6.980;2022-11-04T04:23:30;3.17;;;0.80;;
52708;SDS011;38606;52.986;6.980;2022-11-04T04:26:17;4.43;;;0.82;;
52708;SDS011;38606;52.986;6.980;2022-11-04T04:29:04;3.05;;;0.70;;
52708;SDS011;38606;52.986;6.980;2022-11-04T04:31:32;5.03;;;0.50;;
52708;SDS011;38606;52.986;6.980;2022-11-04T04:34:13;4.68;;;0.50;;
52708;SDS011;38606;52.986;6.980;2022-11-04T04:36:51;1.50;;;0.50;;
52708;SDS011;38606;52.986;6.980;2022-11-04T04:39:21;1.90;;;0.40;;
52708;SDS011;38606;52.986;6.980;2022-11-04T04:42:07;4.30;;;0.60;;
52708;SDS011;38606;52.986;6.980;2022-11-04T04:44:52;1.05;;;0.40;;
52708;SDS011;38606;52.986;6.980;2022-11-04T04:48:01;2.45;;;0.50;;
52708;SDS011;38606;52.986;6.980;2022-11-04T04:50:20;0.57;;;0.20;;
52708;SDS011;38606;52.986;6.980;2022-11-04T04:52:47;2.38;;;0.30;;
52708;SDS011;38606;52.986;6.980;2022-11-04T04:55:14;1.90;;;0.38;;
52708;SDS011;38606;52.986;6.980;2022-11-04T04:57:41;0.90;;;0.35;;
52708;SDS011;38606;52.986;6.980;2022-11-04T05:00:08;1.88;;;0.52;;
52708;SDS011;38606;52.986;6.980;2022-11-04T05:02:37;0.30;;;0.30;;
52708;SDS011;38606;52.986;6.980;2022-11-04T05:05:03;0.35;;;0.25;;
52708;SDS011;38606;52.986;6.980;2022-11-04T05:07:29;1.17;;;0.30;;
52708;SDS011;38606;52.986;6.980;2022-11-04T05:09:55;1.25;;;0.40;;
52708;SDS011;38606;52.986;6.980;2022-11-04T05:12:20;0.43;;;0.40;;
52708;SDS011;38606;52.986;6.980;2022-11-04T05:14:46;0.40;;;0.20;;
52708;SDS011;38606;52.986;6.980;2022-11-04T05:17:13;0.45;;;0.22;;
52708;SDS011;38606;52.986;6.980;2022-11-04T05:19:40;0.20;;;0.20;;
52708;SDS011;38606;52.986;6.980;2022-11-04T05:22:06;0.47;;;0.28;;
52708;SDS011;38606;52.986;6.980;2022-11-04T05:24:31;1.00;;;0.30;;
52708;SDS011;38606;52.986;6.980;2022-11-04T05:26:57;0.45;;;0.30;;
52708;SDS011;38606;52.986;6.980;2022-11-04T05:29:23;1.00;;;0.32;;
52708;SDS011;38606;52.986;6.980;2022-11-04T05:31:48;0.47;;;0.20;;
52708;SDS011;38606;52.986;6.980;2022-11-04T05:34:14;0.50;;;0.20;;
52708;SDS011;38606;52.986;6.980;2022-11-04T05:36:40;2.85;;;0.30;;
52708;SDS011;38606;52.986;6.980;2022-11-04T05:39:05;2.25;;;0.30;;
52708;SDS011;38606;52.986;6.980;2022-11-04T05:41:32;0.70;;;0.40;;
52708;SDS011;38606;52.986;6.980;2022-11-04T05:43:59;0.45;;;0.20;;
52708;SDS011;38606;52.986;6.980;2022-11-04T05:46:26;1.15;;;0.40;;
52708;SDS011;38606;52.986;6.980;2022-11-04T05:48:52;0.50;;;0.30;;
52708;SDS011;38606;52.986;6.980;2022-11-04T05:51:19;1.70;;;0.30;;
52708;SDS011;38606;52.986;6.980;2022-11-04T05:53:47;1.10;;;0.30;;
52708;SDS011;38606;52.986;6.980;2022-11-04T05:56:13;1.85;;;0.30;;
52708;SDS011;38606;52.986;6.980;2022-11-04T05:58:39;2.05;;;0.43;;
52708;SDS011;38606;52.986;6.980;2022-11-04T06:03:51;2.63;;;0.40;;
52708;SDS011;38606;52.986;6.980;2022-11-04T06:06:18;1.92;;;0.55;;
52708;SDS011;38606;52.986;6.980;2022-11-04T06:08:44;0.55;;;0.30;;
52708;SDS011;38606;52.986;6.980;2022-11-04T06:11:10;1.23;;;0.50;;
52708;SDS011;38606;52.986;6.980;2022-11-04T06:13:36;2.00;;;0.40;;
52708;SDS011;38606;52.986;6.980;2022-11-04T06:16:02;1.33;;;0.50;;
52708;SDS011;38606;52.986;6.980;2022-11-04T06:18:28;0.47;;;0.30;;
52708;SDS011;38606;52.986;6.980;2022-11-04T06:21:07;4.07;;;0.52;;
52708;SDS011;38606;52.986;6.980;2022-11-04T06:23:39;0.63;;;0.50;;
52708;SDS011;38606;52.986;6.980;2022-11-04T06:26:05;0.70;;;0.43;;
52708;SDS011;38606;52.986;6.980;2022-11-04T06:28:31;4.35;;;0.88;;
52708;SDS011;38606;52.986;6.980;2022-11-04T06:30:58;2.50;;;0.50;;
52708;SDS011;38606;52.986;6.980;2022-11-04T06:33:25;1.83;;;0.55;;
52708;SDS011;38606;52.986;6.980;2022-11-04T06:35:51;2.55;;;0.60;;
52708;SDS011;38606;52.986;6.980;2022-11-04T06:38:20;1.83;;;0.50;;
52708;SDS011;38606;52.986;6.980;2022-11-04T06:40:46;2.80;;;0.70;;
52708;SDS011;38606;52.986;6.980;2022-11-04T06:43:11;3.00;;;0.60;;
52708;SDS011;38606;52.986;6.980;2022-11-04T06:45:37;1.58;;;0.50;;
52708;SDS011;38606;52.986;6.980;2022-11-04T06:48:03;2.88;;;0.60;;
52708;SDS011;38606;52.986;6.980;2022-11-04T06:50:29;2.45;;;0.65;;
52708;SDS011;38606;52.986;6.980;2022-11-04T06:52:54;4.20;;;0.63;;
52708;SDS011;38606;52.986;6.980;2022-11-04T06:55:20;1.88;;;0.50;;
52708;SDS011;38606;52.986;6.980;2022-11-04T06:57:46;1.55;;;0.50;;
52708;SDS011;38606;52.986;6.980;2022-11-04T07:00:11;3.92;;;0.75;;
52708;SDS011;38606;52.986;6.980;2022-11-04T07:02:38;1.40;;;0.60;;
52708;SDS011;38606;52.986;6.980;2022-11-04T07:05:03;5.15;;;0.77;;
52708;SDS011;38606;52.986;6.980;2022-11-04T07:07:29;2.92;;;0.82;;
52708;SDS011;38606;52.986;6.980;2022-11-04T07:09:55;1.67;;;0.75;;
52708;SDS011;38606;52.986;6.980;2022-11-04T07:12:21;3.10;;;0.80;;
52708;SDS011;38606;52.986;6.980;2022-11-04T07:14:48;3.28;;;1.05;;
52708;SDS011;38606;52.986;6.980;2022-11-04T07:17:15;2.30;;;0.73;;
52708;SDS011;38606;52.986;6.980;2022-11-04T07:19:41;1.27;;;0.70;;
52708;SDS011;38606;52.986;6.980;2022-11-04T07:22:06;3.38;;;0.70;;
52708;SDS011;38606;52.986;6.980;2022-11-04T07:24:32;2.00;;;0.90;;
52708;SDS011;38606;52.986;6.980;2022-11-04T07:26:58;3.17;;;1.33;;
52708;SDS011;38606;52.986;6.980;2022-11-04T07:29:24;3.88;;;1.35;;
52708;SDS011;38606;52.986;6.980;2022-11-04T07:31:50;2.33;;;1.10;;
52708;SDS011;38606;52.986;6.980;2022-11-04T07:34:16;2.70;;;1.33;;
52708;SDS011;38606;52.986;6.980;2022-11-04T07:36:41;3.80;;;1.25;;
52708;SDS011;38606;52.986;6.980;2022-11-04T07:39:07;4.53;;;1.40;;
52708;SDS011;38606;52.986;6.980;2022-11-04T07:41:33;4.82;;;1.90;;
52708;SDS011;38606;52.986;6.980;2022-11-04T07:43:59;2.65;;;1.30;;
52708;SDS011;38606;52.986;6.980;2022-11-04T07:46:26;2.55;;;1.10;;
52708;SDS011;38606;52.986;6.980;2022-11-04T07:48:51;3.47;;;1.40;;
52708;SDS011;38606;52.986;6.980;2022-11-04T07:51:20;1.40;;;1.10;;
52708;SDS011;38606;52.986;6.980;2022-11-04T07:53:46;3.67;;;1.52;;
52708;SDS011;38606;52.986;6.980;2022-11-04T07:56:12;3.67;;;1.00;;
52708;SDS011;38606;52.986;6.980;2022-11-04T07:58:38;4.45;;;1.20;;
52708;SDS011;38606;52.986;6.980;2022-11-04T08:01:05;1.48;;;1.00;;
52708;SDS011;38606;52.986;6.980;2022-11-04T08:03:40;4.75;;;1.10;;
52708;SDS011;38606;52.986;6.980;2022-11-04T08:06:06;3.95;;;1.30;;
52708;SDS011;38606;52.986;6.980;2022-11-04T08:08:34;1.92;;;0.85;;
52708;SDS011;38606;52.986;6.980;2022-11-04T08:11:02;2.03;;;1.10;;
52708;SDS011;38606;52.986;6.980;2022-11-04T08:13:30;3.85;;;1.40;;
52708;SDS011;38606;52.986;6.980;2022-11-04T08:16:02;3.22;;;1.08;;
52708;SDS011;38606;52.986;6.980;2022-11-04T08:18:32;3.15;;;1.20;;
52708;SDS011;38606;52.986;6.980;2022-11-04T08:20:58;1.70;;;1.10;;
52708;SDS011;38606;52.986;6.980;2022-11-04T08:23:26;3.85;;;1.20;;
52708;SDS011;38606;52.986;6.980;2022-11-04T08:25:52;2.78;;;1.40;;
52708;SDS011;38606;52.986;6.980;2022-11-04T08:28:17;5.13;;;1.20;;
52708;SDS011;38606;52.986;6.980;2022-11-04T08:33:23;6.00;;;1.35;;
52708;SDS011;38606;52.986;6.980;2022-11-04T08:35:51;3.05;;;1.27;;
52708;SDS011;38606;52.986;6.980;2022-11-04T08:38:17;3.42;;;1.50;;
52708;SDS011;38606;52.986;6.980;2022-11-04T08:40:43;2.58;;;1.27;;
52708;SDS011;38606;52.986;6.980;2022-11-04T08:43:09;2.72;;;1.52;;
52708;SDS011;38606;52.986;6.980;2022-11-04T08:45:39;3.35;;;1.42;;
52708;SDS011;38606;52.986;6.980;2022-11-04T08:48:06;2.25;;;1.23;;
52708;SDS011;38606;52.986;6.980;2022-11-04T08:50:31;2.90;;;1.30;;
52708;SDS011;38606;52.986;6.980;2022-11-04T08:52:57;9.50;;;1.98;;
52708;SDS011;38606;52.986;6.980;2022-11-04T08:55:23;2.35;;;1.50;;
52708;SDS011;38606;52.986;6.980;2022-11-04T08:57:49;3.90;;;1.75;;
52708;SDS011;38606;52.986;6.980;2022-11-04T09:00:16;3.00;;;1.30;;
52708;SDS011;38606;52.986;6.980;2022-11-04T09:02:41;6.07;;;1.60;;
52708;SDS011;38606;52.986;6.980;2022-11-04T09:05:07;4.13;;;1.40;;
52708;SDS011;38606;52.986;6.980;2022-11-04T09:07:35;3.78;;;1.63;;
52708;SDS011;38606;52.986;6.980;2022-11-04T09:10:01;2.78;;;1.52;;
52708;SDS011;38606;52.986;6.980;2022-11-04T09:12:29;2.88;;;1.42;;
52708;SDS011;38606;52.986;6.980;2022-11-04T09:14:55;3.33;;;1.40;;
52708;SDS011;38606;52.986;6.980;2022-11-04T09:17:21;3.42;;;1.17;;
52708;SDS011;38606;52.986;6.980;2022-11-04T09:19:47;2.22;;;1.45;;
52708;SDS011;38606;52.986;6.980;2022-11-04T09:22:13;3.42;;;1.20;;
52708;SDS011;38606;52.986;6.980;2022-11-04T09:24:39;2.47;;;1.10;;
52708;SDS011;38606;52.986;6.980;2022-11-04T09:27:04;3.83;;;1.13;;
52708;SDS011;38606;52.986;6.980;2022-11-04T09:29:30;2.05;;;1.10;;
52708;SDS011;38606;52.986;6.980;2022-11-04T09:31:58;3.72;;;1.45;;
52708;SDS011;38606;52.986;6.980;2022-11-04T09:34:24;3.33;;;1.70;;
52708;SDS011;38606;52.986;6.980;2022-11-04T09:36:50;2.60;;;1.35;;
52708;SDS011;38606;52.986;6.980;2022-11-04T09:39:19;2.97;;;1.45;;
52708;SDS011;38606;52.986;6.980;2022-11-04T09:47:22;4.30;;;1.13;;
52708;SDS011;38606;52.986;6.980;2022-11-04T09:49:51;5.00;;;1.30;;
52708;SDS011;38606;52.986;6.980;2022-11-04T09:52:23;4.90;;;1.58;;
52708;SDS011;38606;52.986;6.980;2022-11-04T09:57:30;4.15;;;1.98;;
52708;SDS011;38606;52.986;6.980;2022-11-04T09:59:57;4.88;;;2.33;;
52708;SDS011;38606;52.986;6.980;2022-11-04T10:13:50;3.45;;;2.22;;
52708;SDS011;38606;52.986;6.980;2022-11-04T10:16:26;4.68;;;2.50;;
52708;SDS011;38606;52.986;6.980;2022-11-04T10:19:17;5.13;;;2.83;;
52708;SDS011;38606;52.986;6.980;2022-11-04T10:22:03;4.95;;;2.67;;
52708;SDS011;38606;52.986;6.980;2022-11-04T10:27:41;4.95;;;3.05;;
52708;SDS011;38606;52.986;6.980;2022-11-04T10:35:35;6.18;;;3.15;;
52708;SDS011;38606;52.986;6.980;2022-11-04T10:38:10;3.92;;;3.10;;
52708;SDS011;38606;52.986;6.980;2022-11-04T10:40:41;4.72;;;3.08;;
52708;SDS011;38606;52.986;6.980;2022-11-04T10:43:12;5.18;;;2.60;;
52708;SDS011;38606;52.986;6.980;2022-11-04T10:45:53;4.30;;;2.97;;
52708;SDS011;38606;52.986;6.980;2022-11-04T10:48:49;6.55;;;2.70;;
52708;SDS011;38606;52.986;6.980;2022-11-04T10:51:50;5.38;;;2.90;;
52708;SDS011;38606;52.986;6.980;2022-11-04T10:54:17;4.97;;;3.25;;
52708;SDS011;38606;52.986;6.980;2022-11-04T10:56:48;7.00;;;3.30;;
52708;SDS011;38606;52.986;6.980;2022-11-04T10:59:26;6.22;;;3.72;;
52708;SDS011;38606;52.986;6.980;2022-11-04T11:06:54;7.70;;;4.13;;
52708;SDS011;38606;52.986;6.980;2022-11-04T11:09:22;8.20;;;3.85;;
52708;SDS011;38606;52.986;6.980;2022-11-04T11:11:54;6.82;;;4.07;;
52708;SDS011;38606;52.986;6.980;2022-11-04T11:14:42;6.63;;;3.67;;
52708;SDS011;38606;52.986;6.980;2022-11-04T11:19:57;6.43;;;3.38;;
52708;SDS011;38606;52.986;6.980;2022-11-04T11:22:41;6.55;;;3.60;;
52708;SDS011;38606;52.986;6.980;2022-11-04T11:25:27;5.97;;;3.92;;
52708;SDS011;38606;52.986;6.980;2022-11-04T11:27:56;6.80;;;3.53;;
52708;SDS011;38606;52.986;6.980;2022-11-04T11:33:02;4.95;;;2.70;;
52708;SDS011;38606;52.986;6.980;2022-11-04T11:35:33;5.65;;;2.47;;
52708;SDS011;38606;52.986;6.980;2022-11-04T11:38:25;5.65;;;2.75;;
52708;SDS011;38606;52.986;6.980;2022-11-04T11:40:54;9.52;;;3.08;;
52708;SDS011;38606;52.986;6.980;2022-11-04T11:43:39;6.00;;;2.88;;
52708;SDS011;38606;52.986;6.980;2022-11-04T11:46:10;4.97;;;2.95;;
52708;SDS011;38606;52.986;6.980;2022-11-04T11:48:40;6.47;;;2.83;;
52708;SDS011;38606;52.986;6.980;2022-11-04T11:51:16;7.32;;;2.60;;
52708;SDS011;38606;52.986;6.980;2022-11-04T11:56:37;7.13;;;2.75;;
52708;SDS011;38606;52.986;6.980;2022-11-04T11:59:16;5.35;;;3.03;;
52708;SDS011;38606;52.986;6.980;2022-11-04T12:05:30;8.13;;;3.30;;
52708;SDS011;38606;52.986;6.980;2022-11-04T12:08:30;8.27;;;2.95;;
52708;SDS011;38606;52.986;6.980;2022-11-04T12:11:05;5.85;;;2.50;;
52708;SDS011;38606;52.986;6.980;2022-11-04T12:16:55;4.47;;;2.00;;
52708;SDS011;38606;52.986;6.980;2022-11-04T12:19:32;8.00;;;2.60;;
52708;SDS011;38606;52.986;6.980;2022-11-04T12:25:15;7.07;;;2.00;;
52708;SDS011;38606;52.986;6.980;2022-11-04T12:28:02;12.82;;;1.90;;
52708;SDS011;38606;52.986;6.980;2022-11-04T12:30:33;3.30;;;1.45;;
52708;SDS011;38606;52.986;6.980;2022-11-04T12:36:05;5.97;;;1.60;;
52708;SDS011;38606;52.986;6.980;2022-11-04T13:00:17;4.57;;;1.27;;
52708;SDS011;38606;52.986;6.980;2022-11-04T13:02:57;5.32;;;0.93;;
52708;SDS011;38606;52.986;6.980;2022-11-04T13:08:02;8.20;;;1.00;;
52708;SDS011;38606;52.986;6.980;2022-11-04T13:10:50;2.65;;;0.70;;
52708;SDS011;38606;52.986;6.980;2022-11-04T13:13:25;4.45;;;1.00;;
52708;SDS011;38606;52.986;6.980;2022-11-04T13:16:00;4.65;;;1.10;;
52708;SDS011;38606;52.986;6.980;2022-11-04T13:18:31;3.47;;;0.88;;
52708;SDS011;38606;52.986;6.980;2022-11-04T13:21:09;3.28;;;0.93;;
52708;SDS011;38606;52.986;6.980;2022-11-04T13:23:50;4.70;;;1.00;;
52708;SDS011;38606;52.986;6.980;2022-11-04T13:26:22;4.22;;;0.98;;
52708;SDS011;38606;52.986;6.980;2022-11-04T13:28:50;3.60;;;0.90;;
52708;SDS011;38606;52.986;6.980;2022-11-04T13:31:51;3.25;;;0.77;;
52708;SDS011;38606;52.986;6.980;2022-11-04T13:37:07;2.72;;;0.90;;
52708;SDS011;38606;52.986;6.980;2022-11-04T13:39:58;2.63;;;0.80;;
52708;SDS011;38606;52.986;6.980;2022-11-04T13:45:52;6.38;;;1.20;;
52708;SDS011;38606;52.986;6.980;2022-11-04T13:48:21;3.65;;;0.90;;
52708;SDS011;38606;52.986;6.980;2022-11-04T13:51:03;4.25;;;0.63;;
52708;SDS011;38606;52.986;6.980;2022-11-04T13:53:50;4.40;;;0.60;;
52708;SDS011;38606;52.986;6.980;2022-11-04T13:56:28;3.70;;;0.60;;
52708;SDS011;38606;52.986;6.980;2022-11-04T13:59:18;3.58;;;0.70;;
52708;SDS011;38606;52.986;6.980;2022-11-04T14:04:38;6.15;;;0.63;;
52708;SDS011;38606;52.986;6.980;2022-11-04T14:07:06;3.72;;;0.85;;
52708;SDS011;38606;52.986;6.980;2022-11-04T14:14:36;4.43;;;0.60;;
52708;SDS011;38606;52.986;6.980;2022-11-04T14:17:02;2.97;;;0.80;;
52708;SDS011;38606;52.986;6.980;2022-11-04T14:22:19;3.22;;;0.88;;
52708;SDS011;38606;52.986;6.980;2022-11-04T14:24:52;2.30;;;0.63;;
52708;SDS011;38606;52.986;6.980;2022-11-04T14:27:45;3.17;;;0.88;;
52708;SDS011;38606;52.986;6.980;2022-11-04T14:33:00;3.47;;;1.33;;
52708;SDS011;38606;52.986;6.980;2022-11-04T14:35:32;3.50;;;1.08;;
52708;SDS011;38606;52.986;6.980;2022-11-04T14:38:02;5.60;;;1.13;;
52708;SDS011;38606;52.986;6.980;2022-11-04T14:43:36;3.00;;;1.10;;
52708;SDS011;38606;52.986;6.980;2022-11-04T14:46:07;3.63;;;1.08;;
52708;SDS011;38606;52.986;6.980;2022-11-04T14:48:35;5.00;;;1.30;;
52708;SDS011;38606;52.986;6.980;2022-11-04T14:51:18;3.65;;;1.05;;
52708;SDS011;38606;52.986;6.980;2022-11-04T14:54:01;3.13;;;1.02;;
52708;SDS011;38606;52.986;6.980;2022-11-04T14:56:34;3.85;;;1.30;;
52708;SDS011;38606;52.986;6.980;2022-11-04T14:59:01;2.08;;;1.00;;
52708;SDS011;38606;52.986;6.980;2022-11-04T15:01:40;4.43;;;1.30;;
52708;SDS011;38606;52.986;6.980;2022-11-04T15:04:11;4.65;;;1.30;;
52708;SDS011;38606;52.986;6.980;2022-11-04T15:06:42;4.00;;;1.38;;
52708;SDS011;38606;52.986;6.980;2022-11-04T15:09:32;5.70;;;1.30;;
52708;SDS011;38606;52.986;6.980;2022-11-04T15:12:11;6.60;;;1.63;;
52708;SDS011;38606;52.986;6.980;2022-11-04T15:14:56;4.87;;;1.17;;
52708;SDS011;38606;52.986;6.980;2022-11-04T15:17:24;6.80;;;1.30;;
52708;SDS011;38606;52.986;6.980;2022-11-04T15:19:54;6.03;;;1.23;;
52708;SDS011;38606;52.986;6.980;2022-11-04T15:22:21;9.27;;;1.45;;
52708;SDS011;38606;52.986;6.980;2022-11-04T15:24:48;4.95;;;1.15;;
52708;SDS011;38606;52.986;6.980;2022-11-04T15:27:17;4.28;;;1.27;;
52708;SDS011;38606;52.986;6.980;2022-11-04T15:29:56;3.85;;;1.17;;
52708;SDS011;38606;52.986;6.980;2022-11-04T15:32:24;5.65;;;1.60;;
52708;SDS011;38606;52.986;6.980;2022-11-04T15:34:51;7.50;;;1.30;;
52708;SDS011;38606;52.986;6.980;2022-11-04T15:37:18;6.03;;;1.50;;
52708;SDS011;38606;52.986;6.980;2022-11-04T15:39:46;5.63;;;1.30;;
52708;SDS011;38606;52.986;6.980;2022-11-04T15:42:18;5.95;;;1.55;;
52708;SDS011;38606;52.986;6.980;2022-11-04T15:45:23;4.20;;;1.63;;
52708;SDS011;38606;52.986;6.980;2022-11-04T15:51:20;4.20;;;1.17;;
52708;SDS011;38606;52.986;6.980;2022-11-04T15:53:52;4.88;;;1.30;;
52708;SDS011;38606;52.986;6.980;2022-11-04T15:56:34;5.95;;;1.38;;
52708;SDS011;38606;52.986;6.980;2022-11-04T15:59:07;5.30;;;1.30;;
52708;SDS011;38606;52.986;6.980;2022-11-04T16:01:44;4.70;;;1.58;;
52708;SDS011;38606;52.986;6.980;2022-11-04T16:04:12;3.72;;;1.20;;
52708;SDS011;38606;52.986;6.980;2022-11-04T16:06:40;6.15;;;1.63;;
52708;SDS011;38606;52.986;6.980;2022-11-04T16:09:25;6.53;;;1.80;;
52708;SDS011;38606;52.986;6.980;2022-11-04T16:14:45;5.18;;;1.85;;
52708;SDS011;38606;52.986;6.980;2022-11-04T16:17:13;3.28;;;1.80;;
52708;SDS011;38606;52.986;6.980;2022-11-04T16:19:38;6.60;;;2.60;;
52708;SDS011;38606;52.986;6.980;2022-11-04T16:22:05;7.10;;;2.28;;
52708;SDS011;38606;52.986;6.980;2022-11-04T16:24:34;6.20;;;2.03;;
52708;SDS011;38606;52.986;6.980;2022-11-04T16:27:02;10.05;;;2.47;;
52708;SDS011;38606;52.986;6.980;2022-11-04T16:29:32;6.00;;;2.00;;
52708;SDS011;38606;52.986;6.980;2022-11-04T16:32:17;8.68;;;2.03;;
52708;SDS011;38606;52.986;6.980;2022-11-04T16:34:58;9.02;;;3.10;;
52708;SDS011;38606;52.986;6.980;2022-11-04T16:37:26;10.52;;;3.38;;
52708;SDS011;38606;52.986;6.980;2022-11-04T16:39:54;8.35;;;3.05;;
52708;SDS011;38606;52.986;6.980;2022-11-04T16:42:19;9.75;;;4.47;;
52708;SDS011;38606;52.986;6.980;2022-11-04T16:44:47;8.02;;;5.10;;
52708;SDS011;38606;52.986;6.980;2022-11-04T16:47:18;9.25;;;3.55;;
52708;SDS011;38606;52.986;6.980;2022-11-04T16:49:44;10.48;;;5.00;;
52708;SDS011;38606;52.986;6.980;2022-11-04T16:52:12;9.75;;;6.55;;
52708;SDS011;38606;52.986;6.980;2022-11-04T16:54:40;12.30;;;5.10;;
52708;SDS011;38606;52.986;6.980;2022-11-04T16:57:06;8.38;;;3.08;;
52708;SDS011;38606;52.986;6.980;2022-11-04T16:59:36;11.85;;;3.47;;
52708;SDS011;38606;52.986;6.980;2022-11-04T17:02:10;10.55;;;3.30;;
52708;SDS011;38606;52.986;6.980;2022-11-04T17:04:45;11.90;;;3.78;;
52708;SDS011;38606;52.986;6.980;2022-11-04T17:07:11;10.18;;;4.85;;
52708;SDS011;38606;52.986;6.980;2022-11-04T17:09:37;11.27;;;4.72;;
52708;SDS011;38606;52.986;6.980;2022-11-04T17:12:03;12.00;;;5.25;;
52708;SDS011;38606;52.986;6.980;2022-11-04T17:14:30;14.15;;;6.85;;
52708;SDS011;38606;52.986;6.980;2022-11-04T17:16:55;19.90;;;8.32;;
52708;SDS011;38606;52.986;6.980;2022-11-04T17:19:21;15.55;;;8.07;;
52708;SDS011;38606;52.986;6.980;2022-11-04T17:21:47;15.88;;;7.18;;
52708;SDS011;38606;52.986;6.980;2022-11-04T17:24:13;11.38;;;6.60;;
52708;SDS011;38606;52.986;6.980;2022-11-04T17:26:39;17.50;;;7.40;;
52708;SDS011;38606;52.986;6.980;2022-11-04T17:29:04;12.00;;;5.70;;
52708;SDS011;38606;52.986;6.980;2022-11-04T17:31:30;12.07;;;4.90;;
52708;SDS011;38606;52.986;6.980;2022-11-04T17:33:56;14.00;;;3.67;;
52708;SDS011;38606;52.986;6.980;2022-11-04T17:36:21;9.25;;;3.63;;
52708;SDS011;38606;52.986;6.980;2022-11-04T17:38:48;9.27;;;4.00;;
52708;SDS011;38606;52.986;6.980;2022-11-04T17:41:13;8.70;;;3.90;;